createdAt,value
2023-02-23T00:01:19.581Z,11.74
2023-02-23T00:03:46.883Z,11.76
2023-02-23T00:06:13.665Z,11.75
2023-02-23T00:08:40.510Z,11.74
2023-02-23T00:11:11.502Z,11.76
2023-02-23T00:13:39.648Z,11.75
2023-02-23T00:16:13.465Z,11.77
2023-02-23T00:18:48.514Z,11.79
2023-02-23T00:21:18.573Z,11.79
2023-02-23T00:23:57.305Z,11.81
2023-02-23T00:26:30.273Z,11.82
2023-02-23T00:28:58.017Z,11.83
2023-02-23T00:31:26.148Z,11.83
2023-02-23T00:33:58.669Z,11.84
2023-02-23T00:36:28.203Z,11.83
2023-02-23T00:38:56.768Z,11.82
2023-02-23T00:41:28.425Z,11.82
2023-02-23T00:43:57.072Z,11.83
2023-02-23T00:46:27.306Z,11.82
2023-02-23T00:48:58.027Z,11.82
2023-02-23T00:51:32.944Z,11.83
2023-02-23T00:54:00.246Z,11.83
2023-02-23T00:56:27.593Z,11.83
2023-02-23T00:58:54.450Z,11.82
2023-02-23T01:01:21.902Z,11.82
2023-02-23T01:03:48.944Z,11.83
2023-02-23T01:06:17.286Z,11.83
2023-02-23T01:08:46.226Z,11.84
2023-02-23T01:11:15.764Z,11.84
2023-02-23T01:13:44.784Z,11.85
2023-02-23T01:16:14.918Z,11.84
2023-02-23T01:18:44.421Z,11.84
2023-02-23T01:21:19.360Z,11.86
2023-02-23T01:23:45.964Z,11.85
2023-02-23T01:26:20.166Z,11.88
2023-02-23T01:28:54.632Z,11.89
2023-02-23T01:31:22.971Z,11.90
2023-02-23T01:33:54.432Z,11.92
2023-02-23T01:36:21.434Z,11.91
2023-02-23T01:38:49.142Z,11.92
2023-02-23T01:41:16.472Z,11.93
2023-02-23T01:44:27.990Z,11.95
2023-02-23T01:46:54.377Z,11.96
2023-02-23T01:49:27.867Z,11.95
2023-02-23T01:52:16.686Z,11.95
2023-02-23T01:54:50.362Z,11.95
2023-02-23T01:57:20.433Z,11.95
2023-02-23T01:59:49.386Z,11.94
2023-02-23T02:02:23.026Z,11.94
2023-02-23T02:04:52.033Z,11.93
2023-02-23T02:07:23.611Z,11.95
2023-02-23T02:10:11.692Z,11.95
2023-02-23T02:12:54.780Z,11.95
2023-02-23T02:15:25.905Z,11.95
2023-02-23T02:18:18.478Z,11.95
2023-02-23T02:21:12.428Z,11.95
2023-02-23T02:23:42.032Z,11.95
2023-02-23T02:26:33.423Z,11.94
2023-02-23T02:29:50.350Z,11.94
2023-02-23T02:32:39.336Z,11.94
2023-02-23T02:35:42.984Z,11.94
2023-02-23T02:38:43.429Z,11.93
2023-02-23T02:41:19.720Z,11.93
2023-02-23T02:43:54.796Z,11.92
2023-02-23T02:46:33.288Z,11.92
2023-02-23T02:49:03.849Z,11.90
2023-02-23T02:51:39.581Z,11.91
2023-02-23T02:54:10.418Z,11.89
2023-02-23T02:56:40.515Z,11.90
2023-02-23T02:59:37.996Z,11.90
2023-02-23T03:02:23.838Z,11.88
2023-02-23T03:05:08.662Z,11.86
2023-02-23T03:08:09.301Z,11.86
2023-02-23T03:11:04.643Z,11.84
2023-02-23T03:14:11.438Z,11.84
2023-02-23T03:17:08.714Z,11.83
2023-02-23T03:20:06.600Z,11.83
2023-02-23T03:23:12.098Z,11.82
2023-02-23T03:26:30.120Z,11.82
2023-02-23T03:29:25.902Z,11.82
2023-02-23T03:32:37.248Z,11.81
2023-02-23T03:35:39.911Z,11.79
2023-02-23T03:38:41.227Z,11.79
2023-02-23T03:41:29.659Z,11.77
2023-02-23T03:44:20.219Z,11.77
2023-02-23T03:47:06.384Z,11.75
2023-02-23T03:49:55.664Z,11.75
2023-02-23T03:52:50.549Z,11.76
2023-02-23T03:55:40.241Z,11.75
2023-02-23T03:58:30.586Z,11.75
2023-02-23T04:01:20.263Z,11.75
2023-02-23T04:04:09.822Z,11.73
2023-02-23T04:06:58.005Z,11.74
2023-02-23T04:09:43.320Z,11.74
2023-02-23T04:12:34.559Z,11.73
2023-02-23T04:15:15.423Z,11.74
2023-02-23T04:17:43.030Z,11.74
2023-02-23T04:20:12.152Z,11.74
2023-02-23T04:22:39.022Z,11.74
2023-02-23T04:25:06.161Z,11.74
2023-02-23T04:27:32.503Z,11.74
2023-02-23T04:29:58.916Z,11.75
2023-02-23T04:32:25.408Z,11.75
2023-02-23T04:34:51.832Z,11.75
2023-02-23T04:37:18.224Z,11.75
2023-02-23T04:39:48.459Z,11.74
2023-02-23T04:42:15.825Z,11.74
2023-02-23T04:44:42.302Z,11.74
2023-02-23T04:47:08.833Z,11.72
2023-02-23T04:49:35.160Z,11.72
2023-02-23T04:52:01.577Z,11.72
2023-02-23T04:54:28.041Z,11.70
2023-02-23T04:56:54.473Z,11.69
2023-02-23T04:59:20.818Z,11.68
2023-02-23T05:01:47.167Z,11.68
2023-02-23T05:04:13.537Z,11.67
2023-02-23T05:06:39.988Z,11.65
2023-02-23T05:09:09.382Z,11.64
2023-02-23T05:11:35.683Z,11.63
2023-02-23T05:14:02.047Z,11.64
2023-02-23T05:16:28.362Z,11.63
2023-02-23T05:18:54.689Z,11.62
2023-02-23T05:21:21.320Z,11.61
2023-02-23T05:23:48.376Z,11.61
2023-02-23T05:26:14.900Z,11.62
2023-02-23T05:28:42.422Z,11.61
2023-02-23T05:31:09.776Z,11.61
2023-02-23T05:33:42.605Z,11.60
2023-02-23T05:36:13.549Z,11.61
2023-02-23T05:38:40.800Z,11.60
2023-02-23T05:41:18.621Z,11.60
2023-02-23T05:43:45.221Z,11.60
2023-02-23T05:46:15.172Z,11.60
2023-02-23T05:48:42.017Z,11.60
2023-02-23T05:51:11.081Z,11.60
2023-02-23T05:53:37.687Z,11.58
2023-02-23T05:56:06.438Z,11.58
2023-02-23T05:58:32.932Z,11.57
2023-02-23T06:00:59.506Z,11.59
2023-02-23T06:03:25.978Z,11.58
2023-02-23T06:05:54.105Z,11.58
2023-02-23T06:08:20.670Z,11.58
2023-02-23T06:10:47.561Z,11.58
2023-02-23T06:13:14.597Z,11.58
2023-02-23T06:15:41.382Z,11.58
2023-02-23T06:18:08.992Z,11.58
2023-02-23T06:20:36.053Z,11.58
2023-02-23T06:23:02.895Z,11.58
2023-02-23T06:25:29.324Z,11.60
2023-02-23T06:27:56.006Z,11.60
2023-02-23T06:30:22.681Z,11.59
2023-02-23T06:32:49.382Z,11.59
2023-02-23T06:35:15.842Z,11.60
2023-02-23T06:37:43.275Z,11.61
2023-02-23T06:40:10.485Z,11.61
2023-02-23T06:42:36.854Z,11.61
2023-02-23T06:45:04.642Z,11.62
2023-02-23T06:47:31.173Z,11.64
2023-02-23T06:49:57.577Z,11.63
2023-02-23T06:52:26.181Z,11.63
2023-02-23T06:54:52.514Z,11.63
2023-02-23T06:57:19.290Z,11.61
2023-02-23T06:59:45.637Z,11.61
2023-02-23T07:02:13.332Z,11.60
2023-02-23T07:04:39.750Z,11.59
2023-02-23T07:07:06.349Z,11.58
2023-02-23T07:09:32.766Z,11.57
2023-02-23T07:12:00.063Z,11.57
2023-02-23T07:14:27.335Z,11.57
2023-02-23T07:16:54.395Z,11.57
2023-02-23T07:19:21.233Z,11.57
2023-02-23T07:21:47.584Z,11.57
2023-02-23T07:24:14.039Z,11.57
2023-02-23T07:26:43.396Z,11.57
2023-02-23T07:29:10.002Z,11.58
2023-02-23T07:31:37.627Z,11.58
2023-02-23T07:34:04.094Z,11.57
2023-02-23T07:36:30.397Z,11.59
2023-02-23T07:38:57.446Z,11.59
2023-02-23T07:41:23.864Z,11.59
2023-02-23T07:43:50.210Z,11.59
2023-02-23T07:46:17.321Z,11.60
2023-02-23T07:48:44.867Z,11.60
2023-02-23T07:51:12.848Z,11.60
2023-02-23T07:53:40.823Z,11.61
2023-02-23T07:56:10.834Z,11.61
2023-02-23T07:58:38.848Z,11.62
2023-02-23T08:01:05.731Z,11.62
2023-02-23T08:03:32.291Z,11.63
2023-02-23T08:05:58.991Z,11.63
2023-02-23T08:08:25.704Z,11.63
2023-02-23T08:11:00.039Z,11.66
2023-02-23T08:13:26.472Z,11.65
2023-02-23T08:15:52.879Z,11.66
2023-02-23T08:18:19.241Z,11.67
2023-02-23T08:20:45.810Z,11.67
2023-02-23T08:23:12.413Z,11.67
2023-02-23T08:25:38.813Z,11.67
2023-02-23T08:28:06.813Z,11.68
2023-02-23T08:30:33.777Z,11.69
2023-02-23T08:33:01.346Z,11.70
2023-02-23T08:35:30.972Z,11.70
2023-02-23T08:37:57.874Z,11.72
2023-02-23T08:40:24.252Z,11.73
2023-02-23T08:42:52.050Z,11.74
2023-02-23T08:45:19.451Z,11.74
2023-02-23T08:47:45.873Z,11.74
2023-02-23T08:50:13.565Z,11.74
2023-02-23T08:52:40.261Z,11.76
2023-02-23T08:55:07.480Z,11.77
2023-02-23T08:57:35.078Z,11.79
2023-02-23T09:00:02.114Z,11.79
2023-02-23T09:02:29.063Z,11.83
2023-02-23T09:04:59.016Z,11.85
2023-02-23T09:07:25.638Z,11.86
2023-02-23T09:09:56.398Z,11.91
2023-02-23T09:12:23.086Z,11.93
2023-02-23T09:14:51.215Z,11.96
2023-02-23T09:17:18.562Z,11.99
2023-02-23T09:19:44.906Z,12.02
2023-02-23T09:22:11.451Z,12.06
2023-02-23T09:24:38.473Z,12.08
2023-02-23T09:27:07.299Z,12.12
2023-02-23T09:29:34.356Z,12.15
2023-02-23T09:32:00.796Z,12.16
2023-02-23T09:34:30.649Z,12.17
2023-02-23T09:36:57.037Z,12.18
2023-02-23T09:39:36.989Z,12.18
2023-02-23T09:42:14.919Z,12.18
2023-02-23T09:45:16.408Z,12.18
2023-02-23T09:48:05.161Z,12.16
2023-02-23T09:50:34.889Z,12.15
2023-02-23T09:53:13.493Z,12.16
2023-02-23T09:55:42.802Z,12.16
2023-02-23T09:58:21.955Z,12.17
2023-02-23T10:01:01.780Z,12.18
2023-02-23T10:03:38.648Z,12.20
2023-02-23T10:06:09.998Z,12.20
2023-02-23T10:08:50.969Z,12.23
2023-02-23T10:11:30.221Z,12.24
2023-02-23T10:14:35.168Z,12.24
2023-02-23T10:17:24.090Z,12.27
2023-02-23T10:20:18.992Z,12.29
2023-02-23T10:22:49.360Z,12.32
2023-02-23T10:25:26.022Z,12.33
2023-02-23T10:27:56.059Z,12.33
2023-02-23T10:30:31.238Z,12.33
2023-02-23T10:33:22.413Z,12.32
2023-02-23T10:35:54.030Z,12.29
2023-02-23T10:38:27.508Z,12.27
2023-02-23T10:40:56.138Z,12.28
2023-02-23T10:43:22.859Z,12.27
2023-02-23T10:45:52.868Z,12.29
2023-02-23T10:48:32.564Z,12.30
2023-02-23T10:51:02.662Z,12.32
2023-02-23T10:53:37.539Z,12.33
2023-02-23T10:56:11.098Z,12.33
2023-02-23T10:58:49.398Z,12.34
2023-02-23T11:01:41.764Z,12.35
2023-02-23T11:04:27.613Z,12.38
2023-02-23T11:07:18.016Z,12.39
2023-02-23T11:09:47.778Z,12.41
2023-02-23T11:12:41.752Z,12.45
2023-02-23T11:15:35.690Z,12.49
2023-02-23T11:18:06.772Z,12.49
2023-02-23T11:20:38.421Z,12.50
2023-02-23T11:23:28.924Z,12.48
2023-02-23T11:26:00.847Z,12.42
2023-02-23T11:28:34.863Z,12.39
2023-02-23T11:31:08.801Z,12.35
2023-02-23T11:33:38.566Z,12.30
2023-02-23T11:36:14.440Z,12.29
2023-02-23T11:38:41.084Z,12.33
2023-02-23T11:41:21.104Z,12.35
2023-02-23T11:43:57.204Z,12.35
2023-02-23T11:46:26.080Z,12.35
2023-02-23T11:49:08.438Z,12.37
2023-02-23T11:51:38.536Z,12.39
2023-02-23T11:54:06.981Z,12.40
2023-02-23T11:56:35.330Z,12.44
2023-02-23T11:59:07.375Z,12.48
2023-02-23T12:01:45.261Z,12.52
2023-02-23T12:04:32.232Z,12.56
2023-02-23T12:07:34.796Z,12.57
2023-02-23T12:10:15.313Z,12.55
2023-02-23T12:13:00.488Z,12.51
2023-02-23T12:15:36.343Z,12.47
2023-02-23T12:18:06.953Z,12.48
2023-02-23T12:20:40.554Z,12.44
2023-02-23T12:23:12.117Z,12.44
2023-02-23T12:26:12.663Z,12.42
2023-02-23T12:28:48.309Z,12.42
2023-02-23T12:31:40.378Z,12.42
2023-02-23T12:34:21.301Z,12.40
2023-02-23T12:36:55.901Z,12.36
2023-02-23T12:39:33.201Z,12.31
2023-02-23T12:42:17.290Z,12.25
2023-02-23T12:44:49.955Z,12.20
2023-02-23T12:47:27.160Z,12.18
2023-02-23T12:50:13.406Z,12.17
2023-02-23T12:52:44.064Z,12.20
2023-02-23T12:55:13.110Z,12.20
2023-02-23T12:57:45.529Z,12.20
2023-02-23T13:00:45.285Z,12.19
2023-02-23T13:03:17.828Z,12.18
2023-02-23T13:05:51.896Z,12.16
2023-02-23T13:08:23.388Z,12.13
2023-02-23T13:11:08.456Z,12.10
2023-02-23T13:14:12.576Z,12.08
2023-02-23T13:16:47.686Z,12.04
2023-02-23T13:19:35.444Z,12.00
2023-02-23T13:22:11.543Z,11.96
2023-02-23T13:24:43.685Z,11.91
2023-02-23T13:27:19.476Z,11.85
2023-02-23T13:29:49.478Z,11.81
2023-02-23T13:32:22.364Z,11.77
2023-02-23T13:34:56.400Z,11.73
2023-02-23T13:37:27.515Z,11.69
2023-02-23T13:40:21.843Z,11.66
2023-02-23T13:43:17.486Z,11.64
2023-02-23T13:45:43.827Z,11.60
2023-02-23T13:48:32.330Z,11.57
2023-02-23T13:51:36.372Z,11.55
2023-02-23T13:54:16.079Z,11.52
2023-02-23T13:56:47.180Z,11.47
2023-02-23T13:59:20.262Z,11.40
2023-02-23T14:01:53.596Z,11.34
2023-02-23T14:04:26.022Z,11.29
2023-02-23T14:06:53.852Z,11.22
2023-02-23T14:09:23.828Z,11.18
2023-02-23T14:12:02.984Z,11.14
2023-02-23T14:14:32.821Z,11.12
2023-02-23T14:17:14.582Z,11.11
2023-02-23T14:19:43.073Z,11.10
2023-02-23T14:22:15.628Z,11.11
2023-02-23T14:24:42.101Z,11.10
2023-02-23T14:27:11.062Z,11.11
2023-02-23T14:30:05.129Z,11.11
2023-02-23T14:32:38.553Z,11.11
2023-02-23T14:35:05.246Z,11.09
2023-02-23T14:37:35.594Z,11.08
2023-02-23T14:40:32.100Z,11.08
2023-02-23T14:43:01.640Z,11.05
2023-02-23T14:45:44.080Z,11.01
2023-02-23T14:48:13.295Z,10.96
2023-02-23T14:50:41.281Z,10.93
2023-02-23T14:53:18.474Z,10.91
2023-02-23T14:55:45.516Z,10.89
2023-02-23T14:58:30.157Z,10.89
2023-02-23T15:00:56.489Z,10.88
2023-02-23T15:03:22.889Z,10.88
2023-02-23T15:05:57.382Z,10.90
2023-02-23T15:08:26.238Z,10.90
2023-02-23T15:11:02.769Z,10.91
2023-02-23T15:13:32.012Z,10.92
2023-02-23T15:16:03.570Z,10.94
2023-02-23T15:18:34.742Z,10.95
2023-02-23T15:21:23.962Z,10.96
2023-02-23T15:23:57.734Z,10.95
2023-02-23T15:26:34.746Z,10.93
2023-02-23T15:29:10.132Z,10.92
2023-02-23T15:31:40.896Z,10.91
2023-02-23T15:34:11.154Z,10.91
2023-02-23T15:36:39.903Z,10.91
2023-02-23T15:39:12.223Z,10.89
2023-02-23T15:41:39.362Z,10.89
2023-02-23T15:44:13.644Z,10.89
2023-02-23T15:46:41.735Z,10.88
2023-02-23T15:49:12.408Z,10.89
2023-02-23T15:51:49.459Z,10.91
2023-02-23T15:54:27.986Z,10.93
2023-02-23T15:57:02.272Z,10.93
2023-02-23T15:59:35.726Z,10.93
2023-02-23T16:02:14.459Z,10.95
2023-02-23T16:04:49.998Z,10.95
2023-02-23T16:07:20.194Z,10.98
2023-02-23T16:10:06.059Z,11.01
2023-02-23T16:12:36.927Z,11.02
2023-02-23T16:15:19.344Z,11.03
2023-02-23T16:17:48.962Z,11.06
2023-02-23T16:20:43.991Z,11.06
2023-02-23T16:23:22.218Z,11.09
2023-02-23T16:25:59.026Z,11.08
2023-02-23T16:28:31.344Z,11.08
2023-02-23T16:30:59.438Z,11.09
2023-02-23T16:33:28.543Z,11.09
2023-02-23T16:36:18.842Z,11.10
2023-02-23T16:38:57.869Z,11.12
2023-02-23T16:41:26.742Z,11.11
2023-02-23T16:43:57.574Z,11.12
2023-02-23T16:46:27.938Z,11.13
2023-02-23T16:48:54.490Z,11.12
2023-02-23T16:51:25.401Z,11.15
2023-02-23T16:53:53.535Z,11.13
2023-02-23T16:56:21.875Z,11.12
2023-02-23T16:58:56.449Z,11.15
2023-02-23T17:01:23.250Z,11.12
2023-02-23T17:03:53.212Z,11.13
2023-02-23T17:06:21.562Z,11.12
2023-02-23T17:08:57.553Z,11.11
2023-02-23T17:11:24.765Z,11.11
2023-02-23T17:13:51.128Z,11.11
2023-02-23T17:16:17.831Z,11.08
2023-02-23T17:18:44.872Z,11.07
2023-02-23T17:21:13.206Z,11.06
2023-02-23T17:23:50.780Z,11.04
2023-02-23T17:26:23.249Z,11.03
2023-02-23T17:28:49.991Z,11.00
2023-02-23T17:31:18.139Z,10.99
2023-02-23T17:33:45.562Z,10.97
2023-02-23T17:36:14.936Z,10.95
2023-02-23T17:38:44.013Z,10.93
2023-02-23T17:41:16.811Z,10.94
2023-02-23T17:43:43.354Z,10.93
2023-02-23T17:46:11.849Z,10.93
2023-02-23T17:48:39.871Z,10.91
2023-02-23T17:51:08.914Z,10.91
2023-02-23T17:53:36.093Z,10.91
2023-02-23T17:56:02.428Z,10.90
2023-02-23T17:58:29.130Z,10.91
2023-02-23T18:00:57.163Z,10.92
2023-02-23T18:03:24.868Z,10.92
2023-02-23T18:05:52.859Z,10.93
2023-02-23T18:08:20.106Z,10.93
2023-02-23T18:10:54.296Z,10.96
2023-02-23T18:13:21.429Z,10.95
2023-02-23T18:16:09.831Z,10.97
2023-02-23T18:18:42.035Z,10.98
2023-02-23T18:21:17.587Z,11.02
2023-02-23T18:23:44.181Z,10.98
2023-02-23T18:26:13.485Z,10.99
2023-02-23T18:28:44.257Z,11.00
2023-02-23T18:31:29.128Z,11.02
2023-02-23T18:33:56.547Z,10.96
2023-02-23T18:36:28.937Z,10.88
2023-02-23T18:38:57.560Z,10.74
2023-02-23T18:41:30.509Z,10.55
2023-02-23T18:43:57.875Z,10.36
2023-02-23T18:46:24.237Z,10.16
2023-02-23T18:48:55.087Z,9.96
2023-02-23T18:51:23.143Z,9.77
2023-02-23T18:53:50.531Z,9.59
2023-02-23T18:56:22.940Z,9.43
2023-02-23T18:58:50.608Z,9.29
2023-02-23T19:01:29.117Z,9.17
2023-02-23T19:03:58.465Z,9.06
2023-02-23T19:06:25.304Z,8.97
2023-02-23T19:08:54.250Z,8.87
2023-02-23T19:11:26.396Z,8.79
2023-02-23T19:13:57.799Z,8.72
2023-02-23T19:16:26.323Z,8.66
2023-02-23T19:18:53.191Z,8.60
2023-02-23T19:21:23.681Z,8.54
2023-02-23T19:23:57.534Z,8.50
2023-02-23T19:26:25.912Z,8.46
2023-02-23T19:28:52.585Z,8.42
2023-02-23T19:31:21.125Z,8.39
2023-02-23T19:33:49.536Z,8.38
2023-02-23T19:36:19.091Z,8.35
2023-02-23T19:38:48.829Z,8.35
2023-02-23T19:41:17.996Z,8.36
2023-02-23T19:43:44.752Z,8.38
2023-02-23T19:46:14.672Z,8.39
2023-02-23T19:48:41.242Z,8.40
2023-02-23T19:51:11.163Z,8.42
2023-02-23T19:53:39.870Z,8.43
2023-02-23T19:56:11.517Z,8.43
2023-02-23T19:58:38.278Z,8.42
2023-02-23T20:01:07.567Z,8.45
2023-02-23T20:03:34.703Z,8.45
2023-02-23T20:06:05.467Z,8.48
2023-02-23T20:08:31.908Z,8.50
2023-02-23T20:10:59.692Z,8.54
2023-02-23T20:13:26.630Z,8.56
2023-02-23T20:16:03.956Z,8.59
2023-02-23T20:18:30.351Z,8.58
2023-02-23T20:20:56.747Z,8.57
2023-02-23T20:23:23.152Z,8.58
2023-02-23T20:25:49.513Z,8.58
2023-02-23T20:28:16.066Z,8.58
2023-02-23T20:30:48.848Z,8.60
2023-02-23T20:33:15.411Z,8.60
2023-02-23T20:35:42.291Z,8.59
2023-02-23T20:38:08.739Z,8.61
2023-02-23T20:40:35.417Z,8.61
2023-02-23T20:43:01.849Z,8.61
2023-02-23T20:45:28.341Z,8.60
2023-02-23T20:47:56.196Z,8.61
2023-02-23T20:50:25.832Z,8.60
2023-02-23T20:52:52.193Z,8.63
2023-02-23T20:55:18.742Z,8.61
2023-02-23T20:57:47.421Z,8.63
2023-02-23T21:00:20.071Z,8.64
2023-02-23T21:02:46.437Z,8.65
2023-02-23T21:05:13.110Z,8.65
2023-02-23T21:07:40.706Z,8.64
2023-02-23T21:10:08.507Z,8.64
2023-02-23T21:12:35.465Z,8.62
2023-02-23T21:15:04.509Z,8.61
2023-02-23T21:17:30.974Z,8.59
2023-02-23T21:19:57.318Z,8.59
2023-02-23T21:22:23.659Z,8.57
2023-02-23T21:24:49.984Z,8.56
2023-02-23T21:27:16.295Z,8.55
2023-02-23T21:29:43.529Z,8.51
2023-02-23T21:32:14.476Z,8.50
2023-02-23T21:34:40.898Z,8.47
2023-02-23T21:37:07.256Z,8.41
2023-02-23T21:39:33.631Z,8.38
2023-02-23T21:42:00.344Z,8.32
2023-02-23T21:44:26.862Z,8.27
2023-02-23T21:46:53.246Z,8.21
2023-02-23T21:49:19.721Z,8.14
2023-02-23T21:51:46.085Z,8.07
2023-02-23T21:54:12.440Z,7.99
2023-02-23T21:56:38.866Z,7.90
2023-02-23T21:59:10.810Z,7.82
2023-02-23T22:01:39.378Z,7.74
2023-02-23T22:04:08.439Z,7.65
2023-02-23T22:06:38.801Z,7.58
2023-02-23T22:09:07.008Z,7.51
2023-02-23T22:11:37.295Z,7.45
2023-02-23T22:14:06.575Z,7.37
2023-02-23T22:16:38.153Z,7.32
2023-02-23T22:19:05.958Z,7.26
2023-02-23T22:21:35.541Z,7.20
2023-02-23T22:24:05.240Z,7.15
2023-02-23T22:26:37.359Z,7.10
2023-02-23T22:29:05.249Z,7.03
2023-02-23T22:31:31.930Z,6.97
2023-02-23T22:33:58.346Z,6.92
2023-02-23T22:36:25.140Z,6.89
2023-02-23T22:38:51.640Z,6.83
2023-02-23T22:41:18.025Z,6.77
2023-02-23T22:43:45.927Z,6.72
2023-02-23T22:46:13.699Z,6.69
2023-02-23T22:48:44.739Z,6.67
2023-02-23T22:51:16.332Z,6.65
2023-02-23T22:53:43.518Z,6.65
2023-02-23T22:56:10.287Z,6.66
2023-02-23T22:58:36.830Z,6.68
2023-02-23T23:01:05.772Z,6.71
2023-02-23T23:03:38.042Z,6.73
2023-02-23T23:06:07.961Z,6.75
2023-02-23T23:08:38.924Z,6.79
2023-02-23T23:11:11.269Z,6.82
2023-02-23T23:13:44.276Z,6.86
2023-02-23T23:16:16.951Z,6.88
2023-02-23T23:18:54.479Z,6.93
2023-02-23T23:21:24.113Z,6.95
2023-02-23T23:23:54.149Z,6.99
2023-02-23T23:26:23.285Z,6.99
2023-02-23T23:28:52.959Z,6.99
2023-02-23T23:31:23.245Z,6.98
2023-02-23T23:33:51.492Z,6.96
2023-02-23T23:36:21.981Z,6.92
2023-02-23T23:38:50.028Z,6.86
2023-02-23T23:41:18.967Z,6.81
2023-02-23T23:43:47.052Z,6.76
2023-02-23T23:46:15.912Z,6.69
2023-02-23T23:48:42.324Z,6.64
2023-02-23T23:51:09.181Z,6.56
2023-02-23T23:53:35.525Z,6.52
2023-02-23T23:56:08.719Z,6.49
2023-02-23T23:58:35.316Z,6.47
